Time;durP1;ratioP1;P1;durP2;ratioP2;P2;SDS_P1;SDS_P2;PMS_P1;PMS_P2;Temp;Humidity;BMP_temperature;BMP_pressure;BME280_temperature;BME280_humidity;BME280_pressure;Samples;Min_cycle;Max_cycle;Signal;HPM_P1;HPM_P2
2022/01/30 00:00:14;;;;;;;0.15;0.15;;;;;;;23.48;14.49;96228.22;5053950;28;20032;-75
2022/01/30 00:02:39;;;;;;;0.10;0.10;;;;;;;23.55;14.62;96233.75;5054062;28;20043;-76
2022/01/30 00:05:05;;;;;;;0.10;0.10;;;;;;;23.52;14.64;96224.38;5053979;28;20503;-76
2022/01/30 00:07:31;;;;;;;0.10;0.10;;;;;;;23.48;14.49;96229.00;5054625;28;20128;-76
2022/01/30 00:09:56;;;;;;;0.10;0.10;;;;;;;23.52;14.66;96229.03;5054352;28;20140;-75
2022/01/30 00:12:30;;;;;;;0.20;0.20;;;;;;;23.54;14.67;96224.00;5053820;28;20087;-75
2022/01/30 00:14:57;;;;;;;;;;;;;;;23.81;14.43;96221.94;5053961;28;20183;-74
2022/01/30 00:17:29;;;;;;;0.10;0.10;;;;;;;23.60;14.54;96217.06;5053552;28;19990;-75
2022/01/30 00:20:02;;;;;;;0.10;0.10;;;;;;;23.56;14.42;96216.22;5053573;28;20553;-76
2022/01/30 00:25:05;;;;;;;0.20;0.20;;;;;;;23.52;14.48;96218.13;5076060;28;20054;-75
2022/01/30 00:27:33;;;;;;;;;;;;;;;23.80;14.33;96214.88;5076025;28;20029;-74
2022/01/30 00:29:59;;;;;;;0.20;0.20;;;;;;;23.62;14.29;96206.56;5076711;28;19908;-75
2022/01/30 00:32:24;;;;;;;0.10;0.10;;;;;;;23.57;14.24;96215.06;5075659;28;20585;-76
2022/01/30 00:34:50;;;;;;;0.10;0.10;;;;;;;23.55;14.46;96210.00;5075739;28;20033;-76
2022/01/30 00:37:15;;;;;;;0.10;0.10;;;;;;;23.53;14.45;96206.09;5075711;28;20025;-75
2022/01/30 00:39:41;;;;;;;0.20;0.20;;;;;;;23.52;14.42;96205.28;5075543;28;20031;-76
2022/01/30 00:42:06;;;;;;;0.10;0.10;;;;;;;23.55;14.39;96211.94;5075806;28;20030;-76
2022/01/30 00:44:32;;;;;;;0.20;0.20;;;;;;;23.53;14.35;96193.25;5076257;28;20025;-76
2022/01/30 00:46:58;;;;;;;0.20;0.20;;;;;;;23.46;14.32;96192.38;5075269;28;20033;-76
2022/01/30 00:49:24;;;;;;;0.10;0.10;;;;;;;23.54;14.44;96204.91;5073957;28;20059;-76
2022/01/30 00:51:50;;;;;;;0.15;0.15;;;;;;;23.51;14.49;96209.19;5075357;28;20028;-76
2022/01/30 00:54:15;;;;;;;0.10;0.10;;;;;;;23.49;14.56;96197.91;5075486;28;20455;-76
2022/01/30 00:56:40;;;;;;;0.20;0.20;;;;;;;23.54;14.36;96199.47;5074704;28;20360;-76
2022/01/30 00:59:06;;;;;;;0.13;0.13;;;;;;;23.51;14.43;96190.13;5074635;28;20426;-76
2022/01/30 01:01:32;;;;;;;0.10;0.10;;;;;;;23.52;14.25;96188.94;5075140;28;20032;-76
2022/01/30 01:03:58;;;;;;;0.20;0.20;;;;;;;23.53;14.30;96189.75;5075235;28;20035;-75
2022/01/30 01:06:23;;;;;;;0.20;0.20;;;;;;;23.50;14.29;96187.75;5075199;28;20375;-76
2022/01/30 01:08:56;;;;;;;0.20;0.20;;;;;;;23.51;14.16;96186.59;5075089;28;20020;-76
2022/01/30 01:24:48;;;;;;;0.10;0.10;;;;;;;23.52;14.28;96197.13;5032553;28;20084;-76
2022/01/30 01:27:13;;;;;;;0.10;0.10;;;;;;;23.52;14.18;96197.13;5032522;28;20117;-75
2022/01/30 01:29:39;;;;;;;0.25;0.20;;;;;;;23.53;14.22;96200.66;5032459;28;20025;-74
2022/01/30 01:32:05;;;;;;;0.17;0.17;;;;;;;23.52;14.08;96201.78;5015899;28;20507;-76
2022/01/30 01:34:36;;;;;;;0.13;0.10;;;;;;;23.49;14.03;96202.53;5032451;28;20048;-76
2022/01/30 01:37:01;;;;;;;0.10;0.10;;;;;;;23.49;14.00;96199.81;5032466;28;20033;-76
2022/01/30 01:39:27;;;;;;;0.20;0.20;;;;;;;23.50;14.03;96199.44;5032251;28;20034;-76
2022/01/30 01:41:54;;;;;;;0.10;0.10;;;;;;;23.51;14.04;96206.47;5032344;28;20034;-75
2022/01/30 01:44:28;;;;;;;0.10;0.10;;;;;;;23.51;14.00;96211.13;5032102;28;20099;-75
2022/01/30 01:46:53;;;;;;;0.20;0.20;;;;;;;23.50;14.05;96207.63;5032256;28;20037;-76
2022/01/30 01:49:23;;;;;;;0.10;0.10;;;;;;;23.50;14.12;96204.88;5046137;28;20029;-75
2022/01/30 01:52:02;;;;;;;0.20;0.20;;;;;;;23.49;14.24;96210.72;5051932;28;20033;-76
2022/01/30 01:54:27;;;;;;;0.10;0.10;;;;;;;23.44;14.19;96204.44;5069738;28;20040;-76
2022/01/30 01:56:53;;;;;;;0.10;0.10;;;;;;;23.50;14.38;96209.56;5073862;28;20021;-76
2022/01/30 01:59:18;;;;;;;0.10;0.10;;;;;;;23.49;14.33;96208.78;5074178;28;20020;-76
2022/01/30 02:01:48;;;;;;;0.10;0.10;;;;;;;23.49;14.19;96218.88;5074050;28;20029;-76
2022/01/30 02:04:13;;;;;;;0.10;0.10;;;;;;;23.52;14.41;96210.75;5073811;28;20368;-77
2022/01/30 02:06:39;;;;;;;0.20;0.20;;;;;;;23.49;14.09;96221.59;5073665;28;20054;-76
2022/01/30 02:09:10;;;;;;;0.13;0.13;;;;;;;23.52;14.16;96224.38;5089928;28;20033;-76
2022/01/30 02:11:42;;;;;;;0.10;0.10;;;;;;;23.51;14.10;96211.91;5073934;28;20060;-76
2022/01/30 02:27:31;;;;;;;1.02;0.20;;;;;;;23.48;14.33;96229.00;5031471;28;20033;-76
2022/01/30 02:29:57;;;;;;;0.10;0.10;;;;;;;23.51;14.04;96233.72;5031391;28;20037;-77
2022/01/30 02:32:23;;;;;;;0.10;0.10;;;;;;;23.50;14.16;96231.34;5031331;28;20432;-76
2022/01/30 02:34:48;;;;;;;0.20;0.20;;;;;;;23.50;13.98;96231.34;5014893;28;20025;-76
2022/01/30 02:37:14;;;;;;;0.10;0.10;;;;;;;23.52;14.17;96237.22;5031766;28;20037;-75
2022/01/30 02:39:40;;;;;;;0.10;0.10;;;;;;;23.46;14.05;96241.41;5031442;28;20472;-75
2022/01/30 02:42:05;;;;;;;0.20;0.20;;;;;;;23.48;14.31;96250.03;5031209;28;20025;-76
2022/01/30 02:44:40;;;;;;;0.20;0.20;;;;;;;23.52;14.18;96253.56;5015077;28;20033;-76
2022/01/30 02:47:08;;;;;;;0.10;0.10;;;;;;;23.48;14.27;96256.25;5031339;28;20030;-75
2022/01/30 02:52:25;;;;;;;0.15;0.15;;;;;;;23.54;14.11;96259.41;4992088;28;20105;-76
2022/01/30 02:54:52;;;;;;;0.10;0.10;;;;;;;23.50;14.18;96264.84;4992128;28;20042;-76
2022/01/30 02:57:17;;;;;;;0.15;0.15;;;;;;;23.52;14.12;96272.63;5008634;28;20038;-76
2022/01/30 02:59:43;;;;;;;0.10;0.10;;;;;;;23.51;14.36;96271.06;5011801;28;20026;-76
2022/01/30 03:02:08;;;;;;;0.20;0.20;;;;;;;23.49;14.19;96273.38;5011721;28;20034;-77
2022/01/30 03:04:33;;;;;;;0.10;0.10;;;;;;;23.52;14.23;96278.88;5012562;28;20073;-74
2022/01/30 03:06:59;;;;;;;0.10;0.10;;;;;;;23.48;14.46;96278.06;5012016;28;20033;-77
2022/01/30 03:09:24;;;;;;;0.10;0.10;;;;;;;23.50;14.37;96285.84;5014061;28;20049;-76
2022/01/30 03:11:50;;;;;;;0.20;0.20;;;;;;;23.51;14.37;96285.47;5013121;28;20515;-75
2022/01/30 03:14:15;;;;;;;0.20;0.20;;;;;;;23.49;14.31;96282.34;5012154;28;20026;-77
2022/01/30 03:16:41;;;;;;;0.10;0.10;;;;;;;23.50;14.38;96288.59;5012366;28;20038;-77
2022/01/30 03:19:06;;;;;;;0.10;0.10;;;;;;;23.46;14.26;96282.28;5011926;28;20042;-77
2022/01/30 03:21:31;;;;;;;0.20;0.20;;;;;;;23.46;14.45;96285.00;5015752;28;20574;-77
2022/01/30 03:23:57;;;;;;;0.10;0.10;;;;;;;23.48;14.26;96288.19;5016679;28;20038;-77
2022/01/30 03:26:22;;;;;;;0.10;0.10;;;;;;;23.49;14.58;96292.44;5000215;28;20392;-77
2022/01/30 03:28:50;;;;;;;0.10;0.10;;;;;;;23.41;14.35;96284.19;5037013;28;20048;-77
2022/01/30 03:31:18;;;;;;;0.10;0.10;;;;;;;23.51;14.29;96292.84;5078388;28;20024;-76
2022/01/30 03:33:43;;;;;;;0.10;0.10;;;;;;;23.48;14.40;96297.13;5080407;28;20114;-77
2022/01/30 03:36:09;;;;;;;0.28;0.20;;;;;;;23.38;14.39;96284.94;5081645;28;20347;-77
2022/01/30 03:38:35;;;;;;;0.10;0.10;;;;;;;23.51;14.32;96301.03;5083055;28;20443;-77
2022/01/30 03:41:00;;;;;;;0.20;0.20;;;;;;;23.47;14.58;96302.94;5081206;28;20459;-77
2022/01/30 03:43:25;;;;;;;0.10;0.10;;;;;;;23.49;14.34;96306.06;5081982;28;20027;-77
2022/01/30 03:45:51;;;;;;;0.10;0.10;;;;;;;23.50;14.33;96304.94;5083112;28;20020;-77
2022/01/30 03:48:18;;;;;;;0.10;0.10;;;;;;;23.50;14.53;96305.69;5090067;28;20031;-76
2022/01/30 03:50:43;;;;;;;0.20;0.20;;;;;;;23.49;14.38;96300.63;5114959;28;20016;-76
2022/01/30 03:53:09;;;;;;;0.20;0.20;;;;;;;23.48;14.56;96304.53;5109052;28;20103;-77
2022/01/30 03:55:34;;;;;;;0.10;0.10;;;;;;;23.48;14.22;96313.47;5105769;28;20047;-76
2022/01/30 03:58:00;;;;;;;0.10;0.10;;;;;;;23.51;14.44;96309.19;5104037;28;20027;-75
2022/01/30 04:00:25;;;;;;;0.20;0.20;;;;;;;23.44;14.13;96321.59;5097801;28;20020;-76
2022/01/30 04:02:50;;;;;;;0.10;0.10;;;;;;;23.46;14.04;96320.44;5096571;28;20062;-76
2022/01/30 04:05:16;;;;;;;0.10;0.10;;;;;;;23.47;14.38;96330.97;5096835;28;20024;-76
2022/01/30 04:07:41;;;;;;;0.20;0.20;;;;;;;23.48;14.06;96331.78;5096724;28;20024;-75
2022/01/30 04:10:07;;;;;;;0.10;0.10;;;;;;;23.47;14.27;96324.75;5095494;28;20060;-74
2022/01/30 04:12:33;;;;;;;0.10;0.10;;;;;;;23.48;13.90;96338.00;5096696;28;20028;-76
2022/01/30 04:14:59;;;;;;;0.10;0.10;;;;;;;23.47;14.20;96335.63;5096475;28;20111;-76
2022/01/30 04:17:24;;;;;;;0.20;0.20;;;;;;;23.51;14.00;96347.34;5094931;28;20083;-76
2022/01/30 04:19:50;;;;;;;0.10;0.10;;;;;;;23.49;13.99;96347.75;5096565;28;20028;-76
2022/01/30 04:22:15;;;;;;;0.17;0.17;;;;;;;23.48;13.91;96351.63;5095982;28;20399;-76
2022/01/30 04:24:41;;;;;;;0.20;0.20;;;;;;;23.51;14.05;96358.25;5096310;28;20076;-76
2022/01/30 04:27:06;;;;;;;0.10;0.10;;;;;;;23.50;14.03;96360.19;5096309;28;20390;-76
2022/01/30 04:29:32;;;;;;;0.10;0.10;;;;;;;23.48;14.00;96356.28;5096144;28;20383;-76
2022/01/30 04:31:58;;;;;;;0.10;0.10;;;;;;;23.49;13.86;96371.47;5094516;28;20489;-76
2022/01/30 04:34:24;;;;;;;0.10;0.10;;;;;;;23.49;13.86;96369.53;5096127;28;20039;-76
2022/01/30 04:37:04;;;;;;;0.10;0.10;;;;;;;23.44;14.13;96380.78;5095905;28;20024;-76
2022/01/30 04:53:51;;;;;;;0.10;0.10;;;;;;;23.51;14.02;96399.13;5033797;28;20326;-75
2022/01/30 04:56:54;;;;;;;0.10;0.10;;;;;;;23.51;14.17;96408.09;5032557;28;20037;-76
2022/01/30 04:59:13;;;;;;;0.10;0.10;;;;;;;23.52;13.75;96417.81;5032483;28;20140;-76
2022/01/30 05:06:56;;;;;;;0.10;0.10;;;;;;;23.48;13.90;96429.84;5033337;28;20048;-76
2022/01/30 05:09:21;;;;;;;0.10;0.10;;;;;;;23.48;14.04;96446.19;5032946;28;20503;-76
2022/01/30 05:11:47;;;;;;;0.10;0.10;;;;;;;23.47;13.93;96448.13;5033598;28;20037;-75
2022/01/30 05:14:15;;;;;;;0.15;0.15;;;;;;;23.47;13.86;96450.84;5032927;28;20029;-76
2022/01/30 05:16:41;;;;;;;0.10;0.10;;;;;;;23.46;13.88;96451.22;5032885;28;20042;-76
2022/01/30 05:19:07;;;;;;;0.10;0.10;;;;;;;23.49;13.85;96458.66;5058228;28;20084;-76
2022/01/30 05:21:32;;;;;;;0.10;0.10;;;;;;;23.48;13.74;96468.00;5075079;28;20028;-76
2022/01/30 05:23:58;;;;;;;0.10;0.10;;;;;;;23.47;13.90;96463.69;5075099;28;20056;-76
2022/01/30 05:26:25;;;;;;;0.10;0.10;;;;;;;23.49;13.60;96464.09;5074948;28;20046;-75
2022/01/30 05:28:51;;;;;;;0.30;0.10;;;;;;;23.41;13.83;96474.91;5074939;28;20024;-76
2022/01/30 05:31:17;;;;;;;0.10;0.10;;;;;;;23.45;13.68;96491.31;5073624;28;20108;-75
2022/01/30 05:33:42;;;;;;;0.10;0.10;;;;;;;23.48;13.58;96495.25;5074601;28;20413;-76
2022/01/30 05:36:08;;;;;;;0.10;0.10;;;;;;;23.47;13.63;96501.84;5074237;28;20036;-75
2022/01/30 05:38:34;;;;;;;0.10;0.10;;;;;;;23.48;13.63;96500.69;5074334;28;20062;-75
2022/01/30 05:41:00;;;;;;;0.10;0.10;;;;;;;23.44;13.66;96506.09;5074356;28;20494;-75
2022/01/30 05:43:28;;;;;;;0.15;0.15;;;;;;;23.48;13.58;96519.78;5073954;28;20021;-76
2022/01/30 05:46:05;;;;;;;0.10;0.10;;;;;;;23.49;13.45;96518.59;5074426;28;20081;-74
2022/01/30 05:48:31;;;;;;;0.20;0.20;;;;;;;23.51;13.44;96528.00;5077499;28;20103;-75
2022/01/30 05:50:59;;;;;;;0.10;0.10;;;;;;;23.45;13.54;96529.44;5094567;28;20020;-75
2022/01/30 05:53:25;;;;;;;0.20;0.20;;;;;;;23.46;13.73;96533.75;5094564;28;20052;-75
2022/01/30 05:55:51;;;;;;;0.10;0.10;;;;;;;23.49;13.62;96545.84;5094409;28;20078;-76
2022/01/30 05:58:16;;;;;;;0.10;0.10;;;;;;;23.48;13.57;96544.28;5092922;28;20032;-76
2022/01/30 06:00:42;;;;;;;0.20;0.20;;;;;;;23.47;13.49;96554.38;5093863;28;20020;-75
2022/01/30 06:03:07;;;;;;;0.10;0.10;;;;;;;23.46;13.57;96561.00;5094239;28;20024;-75
2022/01/30 06:05:32;;;;;;;0.10;0.10;;;;;;;23.50;13.73;96563.78;5094217;28;20034;-75
2022/01/30 06:07:58;;;;;;;0.10;0.10;;;;;;;23.47;13.58;96576.19;5094238;28;20455;-75
2022/01/30 06:10:25;;;;;;;0.10;0.10;;;;;;;23.46;13.73;96573.81;5093867;28;20066;-76
2022/01/30 06:12:51;;;;;;;0.10;0.10;;;;;;;23.48;13.62;96579.72;5094133;28;20032;-75
2022/01/30 06:15:16;;;;;;;0.15;0.15;;;;;;;23.47;13.70;96586.31;5092567;28;20024;-75
2022/01/30 06:17:42;;;;;;;0.10;0.10;;;;;;;23.47;13.56;96589.81;5093516;28;20059;-75
2022/01/30 06:20:08;;;;;;;0.10;0.10;;;;;;;23.48;13.72;96593.34;5093807;28;20028;-76
2022/01/30 06:22:34;;;;;;;0.10;0.10;;;;;;;23.45;13.63;96600.28;5093587;28;20452;-76
2022/01/30 06:25:00;;;;;;;0.10;0.10;;;;;;;23.47;13.76;96603.44;5093771;28;20073;-75
2022/01/30 06:27:25;;;;;;;0.10;0.10;;;;;;;23.47;13.54;96621.72;5094034;28;20093;-75
2022/01/30 06:29:51;;;;;;;0.10;0.10;;;;;;;23.47;13.45;96627.97;5093919;28;20051;-75
2022/01/30 06:32:16;;;;;;;0.20;0.20;;;;;;;23.50;13.45;96634.63;5093518;28;20599;-75
2022/01/30 06:34:42;;;;;;;0.10;0.10;;;;;;;23.47;13.53;96630.69;5093795;28;20069;-75
2022/01/30 06:37:07;;;;;;;0.10;0.10;;;;;;;23.46;13.48;96636.50;5093462;28;20400;-75
2022/01/30 06:39:33;;;;;;;0.10;0.10;;;;;;;23.43;13.61;96635.28;5093710;28;20031;-76
2022/01/30 06:41:59;;;;;;;0.10;0.10;;;;;;;23.48;13.46;96645.13;5093620;28;20073;-75
2022/01/30 06:44:24;;;;;;;0.20;0.20;;;;;;;23.46;13.60;96659.09;5094375;28;20103;-75
2022/01/30 06:46:50;;;;;;;0.10;0.10;;;;;;;23.47;13.72;96663.38;5093340;28;20023;-75
2022/01/30 06:49:15;;;;;;;0.30;0.10;;;;;;;23.46;13.51;96667.28;5083886;28;20046;-76
2022/01/30 06:51:40;;;;;;;0.10;0.10;;;;;;;23.46;13.56;96672.72;5073966;28;20025;-75
2022/01/30 06:54:06;;;;;;;0.10;0.10;;;;;;;23.49;13.59;96682.91;5073467;28;20032;-75
2022/01/30 06:56:31;;;;;;;0.20;0.20;;;;;;;23.46;13.53;96677.38;5072408;28;20032;-75
2022/01/30 06:58:56;;;;;;;0.10;0.10;;;;;;;23.43;13.66;96681.63;5073643;28;20047;-75
2022/01/30 07:01:25;;;;;;;0.10;0.10;;;;;;;23.44;13.52;96697.59;5072945;28;20028;-75
2022/01/30 07:03:52;;;;;;;0.10;0.10;;;;;;;23.46;13.64;96707.34;5072977;28;20459;-75
2022/01/30 07:06:17;;;;;;;0.10;0.10;;;;;;;23.48;13.49;96707.78;5072976;28;20032;-76
2022/01/30 07:08:42;;;;;;;0.20;0.20;;;;;;;23.46;13.47;96710.88;5072909;28;20031;-76
2022/01/30 07:11:08;;;;;;;0.20;0.20;;;;;;;23.48;13.30;96722.19;5073234;28;20031;-75
2022/01/30 07:13:33;;;;;;;0.10;0.10;;;;;;;23.49;13.52;96725.69;5073160;28;20029;-75
2022/01/30 07:15:59;;;;;;;0.10;0.10;;;;;;;23.45;13.58;96733.81;5072775;28;20516;-75
2022/01/30 07:18:24;;;;;;;0.10;0.10;;;;;;;23.43;13.51;96736.88;5072550;28;20036;-76
2022/01/30 07:20:49;;;;;;;0.10;0.10;;;;;;;23.48;13.37;96745.94;5072889;28;20029;-76
2022/01/30 07:23:15;;;;;;;0.10;0.10;;;;;;;23.48;13.63;96751.38;5071806;28;20082;-76
2022/01/30 07:25:41;;;;;;;0.15;0.15;;;;;;;23.44;13.38;96754.81;5073529;28;20021;-75
2022/01/30 07:28:06;;;;;;;0.10;0.10;;;;;;;23.46;13.33;96765.38;5073079;28;20040;-75
2022/01/30 07:30:32;;;;;;;0.20;0.20;;;;;;;23.47;13.31;96772.38;5072993;28;20501;-76
2022/01/30 07:32:57;;;;;;;0.20;0.20;;;;;;;23.47;13.41;96777.03;5072640;28;20545;-76
2022/01/30 07:35:22;;;;;;;0.10;0.10;;;;;;;23.44;13.44;96784.78;5073058;28;20032;-75
2022/01/30 07:37:49;;;;;;;0.10;0.10;;;;;;;23.45;13.50;96785.56;5072991;28;20025;-74
2022/01/30 07:40:14;;;;;;;0.10;0.10;;;;;;;23.47;13.41;96798.84;5072889;28;20028;-75
2022/01/30 07:42:39;;;;;;;0.10;0.10;;;;;;;23.45;13.46;96801.94;5071321;28;20048;-75
2022/01/30 07:45:05;;;;;;;0.10;0.10;;;;;;;23.44;13.71;96806.59;5072910;28;20033;-74
2022/01/30 07:47:30;;;;;;;0.20;0.20;;;;;;;23.48;13.51;96816.78;5072775;28;20021;-76
2022/01/30 07:49:56;;;;;;;0.10;0.10;;;;;;;23.40;13.38;96816.66;5087561;28;20074;-76
2022/01/30 07:52:22;;;;;;;0.10;0.10;;;;;;;23.46;13.33;96835.41;5092806;28;20466;-75
2022/01/30 07:54:48;;;;;;;0.10;0.10;;;;;;;23.47;13.20;96837.78;5093067;28;20024;-75
2022/01/30 07:57:14;;;;;;;0.20;0.20;;;;;;;23.47;13.19;96847.91;5093069;28;20016;-75
2022/01/30 07:59:40;;;;;;;0.10;0.10;;;;;;;23.47;13.36;96847.91;5093024;28;20020;-75
2022/01/30 08:02:05;;;;;;;0.10;0.10;;;;;;;23.47;13.44;96858.78;5092952;28;20031;-77
2022/01/30 08:04:31;;;;;;;0.15;0.15;;;;;;;23.47;13.36;96858.78;5093046;28;20366;-74
2022/01/30 08:06:56;;;;;;;0.10;0.10;;;;;;;23.47;13.19;96867.75;5094417;28;20489;-76
2022/01/30 08:09:22;;;;;;;0.10;0.10;;;;;;;23.44;13.36;96874.72;5096235;28;20028;-76
2022/01/30 08:11:47;;;;;;;0.20;0.20;;;;;;;23.47;13.19;96886.81;5096475;28;20043;-76
2022/01/30 08:14:13;;;;;;;0.10;0.10;;;;;;;23.47;13.36;96886.03;5096525;28;20024;-76
2022/01/30 08:16:39;;;;;;;0.20;0.20;;;;;;;23.44;13.25;96888.34;5096191;28;20028;-75
2022/01/30 08:19:04;;;;;;;0.13;0.13;;;;;;;23.46;13.44;96898.06;5096113;28;20105;-76
2022/01/30 08:21:30;;;;;;;0.10;0.10;;;;;;;23.43;13.47;96894.16;5096337;28;20016;-77
2022/01/30 08:23:55;;;;;;;0.15;0.15;;;;;;;23.47;13.17;96907.84;5096659;28;20035;-75
2022/01/30 08:26:21;;;;;;;0.10;0.10;;;;;;;23.44;13.34;96915.59;5096866;28;20378;-76
2022/01/30 08:28:46;;;;;;;0.13;0.13;;;;;;;23.46;13.18;96917.16;5096997;28;20028;-76
2022/01/30 08:31:12;;;;;;;0.20;0.20;;;;;;;23.42;13.42;96920.63;5097508;28;20466;-75
2022/01/30 08:33:37;;;;;;;0.10;0.10;;;;;;;23.47;13.14;96924.19;5096094;28;20106;-75
2022/01/30 08:36:03;;;;;;;0.20;0.20;;;;;;;23.46;13.26;96930.78;5096108;28;20462;-75
2022/01/30 08:38:28;;;;;;;0.10;0.10;;;;;;;23.46;13.39;96944.41;5095895;28;20364;-75
2022/01/30 08:40:53;;;;;;;0.10;0.10;;;;;;;23.45;13.21;96943.63;5095798;28;20025;-75
2022/01/30 08:43:21;;;;;;;0.10;0.10;;;;;;;23.41;13.27;96940.03;5096383;28;20020;-75
2022/01/30 08:45:47;;;;;;;0.20;0.20;;;;;;;23.42;13.22;96964.22;5095893;28;20043;-75
2022/01/30 08:48:13;;;;;;;0.20;0.20;;;;;;;23.47;13.37;96967.78;5095927;28;20028;-75
2022/01/30 08:50:38;;;;;;;0.20;0.20;;;;;;;23.45;13.25;96973.59;5075777;28;20054;-76
2022/01/30 08:53:04;;;;;;;0.20;0.20;;;;;;;23.44;13.21;96985.66;5075263;28;20362;-75
2022/01/30 08:55:29;;;;;;;0.15;0.15;;;;;;;23.48;13.18;96991.19;5075452;28;20033;-75
2022/01/30 08:57:56;;;;;;;0.20;0.20;;;;;;;23.44;13.40;97002.00;5075499;28;20378;-76
2022/01/30 09:00:21;;;;;;;0.10;0.10;;;;;;;23.43;13.17;97000.41;5075406;28;20028;-75
2022/01/30 09:02:47;;;;;;;0.20;0.20;;;;;;;23.44;13.23;97002.78;5074940;28;20455;-75
2022/01/30 09:05:12;;;;;;;0.20;0.20;;;;;;;23.45;13.34;97019.91;5075246;28;20025;-75
2022/01/30 09:07:38;;;;;;;0.20;0.20;;;;;;;23.46;13.30;97026.16;5073978;28;20379;-75
2022/01/30 09:10:04;;;;;;;0.20;0.20;;;;;;;23.46;13.10;97037.06;5075179;28;20356;-76
2022/01/30 09:12:30;;;;;;;0.20;0.20;;;;;;;23.46;13.36;97047.94;5075751;28;20036;-75
2022/01/30 09:14:55;;;;;;;0.20;0.20;;;;;;;23.46;13.44;97054.22;5074999;28;20478;-76
2022/01/30 09:17:22;;;;;;;0.15;0.15;;;;;;;23.45;13.43;97055.34;5074795;28;20121;-76
2022/01/30 09:19:47;;;;;;;0.20;0.20;;;;;;;23.41;13.47;97059.94;5074289;28;20039;-76
2022/01/30 09:22:15;;;;;;;0.13;0.13;;;;;;;23.45;13.28;97060.78;5074902;28;20378;-76
2022/01/30 09:24:40;;;;;;;0.17;0.17;;;;;;;23.44;13.19;97065.47;5073685;28;20029;-75
2022/01/30 09:27:06;;;;;;;0.20;0.20;;;;;;;23.45;13.34;97074.41;5074817;28;20043;-74
2022/01/30 09:29:31;;;;;;;0.10;0.10;;;;;;;23.46;13.23;97084.19;5074405;28;20032;-76
2022/01/30 09:31:57;;;;;;;0.10;0.10;;;;;;;23.42;13.38;97097.72;5074814;28;20036;-74
2022/01/30 09:34:23;;;;;;;0.10;0.10;;;;;;;23.44;13.44;97105.56;5073360;28;20527;-75
2022/01/30 09:36:48;;;;;;;0.20;0.20;;;;;;;23.43;13.15;97104.75;5074387;28;20037;-76
2022/01/30 09:39:14;;;;;;;0.10;0.10;;;;;;;23.44;13.34;97106.34;5074543;28;20020;-75
2022/01/30 09:41:39;;;;;;;0.20;0.20;;;;;;;23.45;13.07;97118.03;5074389;28;20017;-75
2022/01/30 09:44:05;;;;;;;0.10;0.10;;;;;;;23.42;13.02;97116.81;5056725;28;20021;-76
2022/01/30 09:46:32;;;;;;;0.13;0.13;;;;;;;23.41;13.07;97126.09;5074007;28;20032;-76
2022/01/30 09:48:58;;;;;;;0.10;0.10;;;;;;;23.46;13.01;97135.97;5079398;28;20435;-75
2022/01/30 09:51:24;;;;;;;0.20;0.20;;;;;;;23.43;13.10;97132.00;5094612;28;20024;-75
2022/01/30 09:53:49;;;;;;;0.20;0.20;;;;;;;23.39;13.11;97136.56;5094774;28;20519;-76
2022/01/30 09:56:16;;;;;;;0.10;0.10;;;;;;;23.42;13.04;97130.44;5094281;28;20028;-75
2022/01/30 09:58:41;;;;;;;0.17;0.17;;;;;;;23.44;12.99;97141.75;5094464;28;20028;-76
2022/01/30 10:01:06;;;;;;;0.20;0.20;;;;;;;23.44;13.18;97149.16;5094261;28;20394;-77
2022/01/30 10:03:32;;;;;;;0.20;0.20;;;;;;;23.44;13.11;97155.38;5094452;28;20020;-76
2022/01/30 10:06:12;;;;;;;0.20;0.20;;;;;;;23.43;13.00;97158.47;5094383;28;20032;-76
2022/01/30 10:08:43;;;;;;;0.17;0.17;;;;;;;23.44;12.81;97174.47;5094356;28;20062;-75
2022/01/30 10:11:27;;;;;;;0.15;0.15;;;;;;;23.47;12.78;97180.34;5093953;28;20024;-76
2022/01/30 10:14:10;;;;;;;0.20;0.20;;;;;;;23.48;13.08;97190.91;5094234;28;20089;-74
2022/01/30 10:16:46;;;;;;;0.20;0.20;;;;;;;23.51;12.77;97192.13;5094908;28;20174;-76
2022/01/30 10:19:20;;;;;;;0.20;0.20;;;;;;;23.45;12.88;97199.78;5092368;28;20505;-76
2022/01/30 10:21:46;;;;;;;0.20;0.20;;;;;;;23.48;12.93;97196.34;5093652;28;20490;-75
2022/01/30 10:24:18;;;;;;;0.20;0.20;;;;;;;23.46;12.54;97206.00;5092768;28;20416;-76
2022/01/30 10:26:43;;;;;;;0.30;0.30;;;;;;;23.43;12.51;97213.75;5093753;28;20404;-75
2022/01/30 10:29:38;;;;;;;0.20;0.20;;;;;;;23.53;12.65;97217.13;5093535;28;20032;-76
2022/01/30 10:32:03;;;;;;;0.35;0.30;;;;;;;23.49;12.33;97211.56;5011564;28;20113;-76
2022/01/30 10:34:29;;;;;;;0.20;0.20;;;;;;;23.44;12.68;97215.34;5012074;28;20109;-75
2022/01/30 10:37:14;;;;;;;0.10;0.10;;;;;;;23.50;12.72;97224.03;4995406;28;20431;-76
2022/01/30 10:40:05;;;;;;;0.20;0.20;;;;;;;23.46;12.60;97225.09;5011558;28;20057;-75
2022/01/30 10:42:39;;;;;;;0.20;0.20;;;;;;;23.44;12.57;97233.63;4996944;28;20057;-75
2022/01/30 10:45:09;;;;;;;0.30;0.30;;;;;;;23.44;12.61;97236.34;5011678;28;20033;-75
2022/01/30 10:47:36;;;;;;;0.30;0.30;;;;;;;23.42;12.73;97244.88;5011393;28;20034;-76
2022/01/30 10:50:06;;;;;;;0.20;0.20;;;;;;;23.46;12.57;97249.59;5011327;28;20085;-76
2022/01/30 10:52:32;;;;;;;0.15;0.15;;;;;;;23.42;12.79;97261.22;5011352;28;20120;-76
2022/01/30 10:55:05;;;;;;;0.20;0.20;;;;;;;23.45;12.86;97265.19;4995043;28;20041;-76
2022/01/30 10:57:30;;;;;;;0.30;0.30;;;;;;;23.43;12.78;97264.75;5011881;28;20487;-76
2022/01/30 10:59:57;;;;;;;0.20;0.20;;;;;;;23.42;12.84;97276.75;4979454;28;20034;-75
2022/01/30 11:02:23;;;;;;;0.20;0.20;;;;;;;23.44;12.71;97283.47;4995005;28;20104;-75
2022/01/30 11:04:49;;;;;;;0.30;0.30;;;;;;;23.41;12.85;97295.06;5011242;28;20042;-76
2022/01/30 11:07:17;;;;;;;0.20;0.20;;;;;;;23.42;12.67;97304.00;5011720;28;20198;-75
2022/01/30 11:10:10;;;;;;;0.20;0.20;;;;;;;23.48;12.83;97296.41;5073349;28;20092;-76
2022/01/30 11:12:57;;;;;;;0.25;0.25;;;;;;;23.46;12.58;97301.38;5073196;28;20078;-76
2022/01/30 11:15:35;;;;;;;0.30;0.30;;;;;;;23.47;12.90;97317.38;5073010;28;20463;-76
2022/01/30 11:18:02;;;;;;;0.20;0.20;;;;;;;23.47;12.59;97322.84;5072868;28;20509;-76
2022/01/30 11:20:28;;;;;;;0.20;0.20;;;;;;;23.44;12.84;97329.78;5073297;28;20041;-73
2022/01/30 11:22:53;;;;;;;0.30;0.30;;;;;;;23.44;12.90;97332.53;5073760;28;20474;-75
2022/01/30 11:25:19;;;;;;;0.20;0.20;;;;;;;23.46;12.87;97336.81;5071907;28;20082;-75
2022/01/30 11:27:46;;;;;;;0.20;0.20;;;;;;;23.42;12.88;97348.44;5072801;28;20472;-76
2022/01/30 11:30:12;;;;;;;0.30;0.30;;;;;;;23.45;12.91;97346.94;5072864;28;20064;-75
2022/01/30 11:32:38;;;;;;;0.20;0.20;;;;;;;23.44;12.84;97351.59;5088654;28;20041;-76
2022/01/30 11:35:03;;;;;;;0.20;0.20;;;;;;;23.44;12.79;97357.03;5073072;28;20511;-75
2022/01/30 11:37:31;;;;;;;0.30;0.30;;;;;;;23.43;12.78;97366.34;5072588;28;20086;-75
2022/01/30 11:39:57;;;;;;;0.20;0.20;;;;;;;23.42;13.02;97367.50;5073489;28;20036;-75
2022/01/30 11:42:25;;;;;;;0.20;0.20;;;;;;;23.43;13.07;97377.25;5074759;28;20017;-76
2022/01/30 11:45:08;;;;;;;0.20;0.20;;;;;;;23.45;12.93;97385.09;5075289;28;20081;-76
2022/01/30 11:47:42;;;;;;;0.35;0.35;;;;;;;23.47;12.92;97384.75;5075776;28;20025;-76
2022/01/30 11:50:08;;;;;;;0.20;0.20;;;;;;;23.46;12.97;97392.13;5089841;28;20027;-76
2022/01/30 11:52:49;;;;;;;0.30;0.30;;;;;;;23.50;13.07;97395.75;5096657;28;20463;-76
2022/01/30 11:55:43;;;;;;;0.20;0.20;;;;;;;23.49;13.21;97407.81;5096552;28;20028;-75
2022/01/30 11:58:30;;;;;;;0.20;0.20;;;;;;;23.51;13.19;97410.16;5096561;28;20103;-76
2022/01/30 12:00:56;;;;;;;0.20;0.20;;;;;;;23.46;13.01;97421.28;5096754;28;20024;-75
2022/01/30 12:03:27;;;;;;;0.35;0.35;;;;;;;23.44;13.10;97433.34;5096742;28;20028;-75
2022/01/30 12:05:53;;;;;;;0.20;0.20;;;;;;;23.44;13.10;97440.75;5096627;28;20042;-76
2022/01/30 12:08:46;;;;;;;0.20;0.20;;;;;;;23.48;13.24;97455.25;5096359;28;20486;-75
2022/01/30 12:11:37;;;;;;;0.10;0.10;;;;;;;23.49;13.18;97462.31;5096514;28;20028;-76
2022/01/30 12:14:04;;;;;;;0.20;0.20;;;;;;;23.42;13.35;97468.34;5014222;28;20046;-76
2022/01/30 12:16:51;;;;;;;0.15;0.15;;;;;;;23.50;13.16;97463.09;5014148;28;20042;-76
2022/01/30 12:19:31;;;;;;;0.20;0.20;;;;;;;23.50;13.22;97468.53;5014043;28;20058;-76
2022/01/30 12:21:58;;;;;;;0.20;0.20;;;;;;;23.44;13.31;97470.72;5014424;28;20049;-76
2022/01/30 12:24:27;;;;;;;0.10;0.10;;;;;;;23.44;13.34;97479.69;5013875;28;20099;-76
2022/01/30 12:26:59;;;;;;;0.20;0.20;;;;;;;23.43;13.35;97482.75;5013823;28;20034;-75